createdAt,value
2023-04-04T00:00:55.683Z,0.80
2023-04-04T00:03:22.514Z,0.80
2023-04-04T00:05:53.436Z,0.70
2023-04-04T00:08:20.064Z,0.10
2023-04-04T00:10:49.269Z,0.00
2023-04-04T00:13:15.954Z,0.10
2023-04-04T00:15:45.079Z,0.20
2023-04-04T00:18:11.805Z,0.90
2023-04-04T00:20:38.830Z,0.10
2023-04-04T00:23:11.121Z,0.70
2023-04-04T00:25:37.856Z,0.10
2023-04-04T00:28:04.599Z,-0.10
2023-04-04T00:30:34.195Z,0.00
2023-04-04T00:33:02.058Z,-0.10
2023-04-04T00:35:29.039Z,-0.10
2023-04-04T00:38:00.097Z,-0.20
2023-04-04T00:40:26.833Z,-0.20
2023-04-04T00:42:53.586Z,0.60
2023-04-04T00:45:20.283Z,-0.30
2023-04-04T00:47:50.362Z,-0.30
2023-04-04T00:50:21.974Z,0.60
2023-04-04T00:52:51.792Z,0.00
2023-04-04T00:55:19.135Z,0.00
2023-04-04T00:57:51.347Z,0.40
2023-04-04T01:00:18.049Z,0.90
2023-04-04T01:02:44.781Z,-0.10
2023-04-04T01:05:12.545Z,-0.40
2023-04-04T01:07:44.047Z,-0.50
2023-04-04T01:10:10.963Z,0.50
2023-04-04T01:12:40.589Z,-0.80
2023-04-04T01:15:10.197Z,0.10
2023-04-04T01:17:37.535Z,-0.30
2023-04-04T01:20:10.709Z,-0.40
2023-04-04T01:22:37.805Z,-0.30
2023-04-04T01:25:05.811Z,-0.20
2023-04-04T01:27:32.468Z,-0.30
2023-04-04T01:29:59.254Z,-0.30
2023-04-04T01:32:28.435Z,-0.30
2023-04-04T01:35:01.148Z,-0.30
2023-04-04T01:37:32.633Z,-0.40
2023-04-04T01:40:06.615Z,-0.40
2023-04-04T01:42:33.323Z,-0.40
2023-04-04T01:44:59.953Z,-0.40
2023-04-04T01:47:26.483Z,-0.30
2023-04-04T01:49:54.024Z,-0.40
2023-04-04T01:52:20.709Z,-0.40
2023-04-04T01:54:47.291Z,-0.30
2023-04-04T01:57:13.996Z,-0.30
2023-04-04T01:59:40.632Z,-0.20
2023-04-04T02:02:07.450Z,-0.30
2023-04-04T02:04:34.317Z,-0.30
2023-04-04T02:07:00.901Z,-0.30
2023-04-04T02:09:27.459Z,-0.30
2023-04-04T02:11:54.624Z,-0.30
2023-04-04T02:14:21.564Z,-0.20
2023-04-04T02:16:48.063Z,-0.20
2023-04-04T02:19:14.581Z,-0.10
2023-04-04T02:21:41.090Z,-0.20
2023-04-04T02:24:07.755Z,-0.10
2023-04-04T02:26:34.304Z,-0.10
2023-04-04T02:29:01.003Z,-0.10
2023-04-04T02:31:27.709Z,-0.10
2023-04-04T02:33:54.366Z,-0.10
2023-04-04T02:36:21.192Z,-0.10
2023-04-04T02:38:47.773Z,0.00
2023-04-04T02:41:14.355Z,0.00
2023-04-04T02:43:41.053Z,0.00
2023-04-04T02:46:20.583Z,0.00
2023-04-04T02:49:01.374Z,-0.10
2023-04-04T02:51:27.913Z,0.00
2023-04-04T02:53:54.421Z,0.00
2023-04-04T02:56:21.212Z,-0.10
2023-04-04T02:58:48.375Z,-0.10
2023-04-04T03:01:14.993Z,-0.30
2023-04-04T03:03:41.664Z,-0.30
2023-04-04T03:06:08.683Z,-0.50
2023-04-04T03:08:35.884Z,-0.60
2023-04-04T03:11:02.724Z,-0.70
2023-04-04T03:13:29.332Z,-0.70
2023-04-04T03:16:03.418Z,-0.70
2023-04-04T03:18:30.061Z,-0.80
2023-04-04T03:20:56.555Z,-0.80
2023-04-04T03:23:23.069Z,-0.80
2023-04-04T03:25:49.657Z,-0.90
2023-04-04T03:28:16.175Z,-1.00
2023-04-04T03:30:43.258Z,-1.00
2023-04-04T03:33:10.095Z,-1.10
2023-04-04T03:35:40.046Z,-1.10
2023-04-04T03:38:06.941Z,-1.10
2023-04-04T03:50:26.324Z,-1.10
2023-04-04T03:52:52.934Z,-1.70
2023-04-04T03:55:19.571Z,-1.60
2023-04-04T03:57:46.361Z,-1.30
2023-04-04T04:00:13.038Z,-1.40
2023-04-04T04:02:40.149Z,-1.50
2023-04-04T04:05:07.081Z,-1.60
2023-04-04T04:07:33.701Z,-1.60
2023-04-04T04:10:00.496Z,-1.80
2023-04-04T04:12:27.110Z,-1.80
2023-04-04T04:14:53.647Z,-1.80
2023-04-04T04:17:20.179Z,-1.80
2023-04-04T04:19:46.747Z,-1.80
2023-04-04T04:22:13.313Z,-1.90
2023-04-04T04:24:39.882Z,-1.80
2023-04-04T04:27:06.888Z,-2.00
2023-04-04T04:29:33.500Z,-1.60
2023-04-04T04:32:01.003Z,-2.20
2023-04-04T04:34:27.686Z,-2.10
2023-04-04T04:41:48.209Z,-2.10
2023-04-04T04:44:14.714Z,-1.90
2023-04-04T04:46:41.453Z,-2.10
2023-04-04T04:49:08.208Z,-1.70
2023-04-04T04:51:34.768Z,-2.20
2023-04-04T04:54:01.614Z,-2.20
2023-04-04T04:56:28.217Z,-2.10
2023-04-04T04:58:54.756Z,-2.20
2023-04-04T05:01:21.356Z,-2.10
2023-04-04T05:03:47.991Z,-2.30
2023-04-04T05:08:41.646Z,-2.30
2023-04-04T05:11:08.159Z,-2.20
2023-04-04T05:13:34.790Z,-2.20
2023-04-04T05:16:01.315Z,-2.20
2023-04-04T05:18:28.370Z,-2.20
2023-04-04T05:20:55.268Z,-2.10
2023-04-04T05:23:22.179Z,-2.10
2023-04-04T05:25:53.270Z,-2.30
2023-04-04T05:28:20.770Z,-2.40
2023-04-04T05:30:47.368Z,-2.10
2023-04-04T05:33:13.901Z,-2.00
2023-04-04T05:35:41.281Z,-1.90
2023-04-04T05:38:07.987Z,-1.70
2023-04-04T05:40:34.516Z,-1.70
2023-04-04T05:43:04.151Z,-1.30
2023-04-04T05:45:31.483Z,-1.20
2023-04-04T05:47:58.263Z,-1.00
2023-04-04T05:50:24.857Z,-1.00
2023-04-04T05:52:53.422Z,-0.90
2023-04-04T05:55:19.927Z,-0.70
2023-04-04T05:57:52.816Z,-0.50
2023-04-04T06:00:19.701Z,-0.60
2023-04-04T06:02:46.816Z,0.60
2023-04-04T06:05:13.451Z,-0.30
2023-04-04T06:07:40.219Z,-0.20
2023-04-04T06:10:07.686Z,0.00
2023-04-04T06:12:40.328Z,0.40
2023-04-04T06:15:07.508Z,0.40
2023-04-04T06:17:34.218Z,0.60
2023-04-04T06:20:00.738Z,0.80
2023-04-04T06:22:27.269Z,0.90
2023-04-04T06:24:53.780Z,0.90
2023-04-04T06:27:20.763Z,0.90
2023-04-04T06:29:47.781Z,1.10
2023-04-04T06:32:14.399Z,1.20
2023-04-04T06:34:40.923Z,1.30
2023-04-04T06:37:07.596Z,1.50
2023-04-04T06:39:34.356Z,1.70
2023-04-04T06:42:01.345Z,1.80
2023-04-04T06:44:27.861Z,1.90
2023-04-04T06:46:54.521Z,2.10
2023-04-04T06:49:21.116Z,2.20
2023-04-04T06:51:50.630Z,2.20
2023-04-04T06:54:17.260Z,2.20
2023-04-04T06:56:43.909Z,2.30
2023-04-04T06:59:12.499Z,2.40
2023-04-04T07:01:39.136Z,2.50
2023-04-04T07:04:05.816Z,2.70
2023-04-04T07:06:32.439Z,2.80
2023-04-04T07:08:59.050Z,2.80
2023-04-04T07:11:25.724Z,3.00
2023-04-04T07:13:52.536Z,3.20
2023-04-04T07:16:19.079Z,3.30
2023-04-04T07:18:45.647Z,3.40
2023-04-04T07:31:01.828Z,3.70
2023-04-04T07:33:28.446Z,3.80
2023-04-04T07:35:55.179Z,4.00
2023-04-04T07:38:21.959Z,3.90
2023-04-04T07:40:49.149Z,4.00
2023-04-04T07:43:15.654Z,4.10
2023-04-04T07:45:42.228Z,4.10
2023-04-04T07:48:09.288Z,4.40
2023-04-04T07:50:35.810Z,4.30
2023-04-04T07:53:02.495Z,4.80
2023-04-04T07:55:29.131Z,4.70
2023-04-04T08:07:52.488Z,4.20
2023-04-04T08:10:21.533Z,6.70
2023-04-04T08:12:48.983Z,6.90
2023-04-04T08:15:15.933Z,3.80
2023-04-04T08:17:48.538Z,5.30
2023-04-04T08:20:15.543Z,5.90
2023-04-04T08:22:45.650Z,5.60
2023-04-04T08:25:12.718Z,5.00
2023-04-04T08:27:43.889Z,4.40
2023-04-04T08:30:10.993Z,4.20
2023-04-04T08:32:37.596Z,5.10
2023-04-04T08:35:05.090Z,3.60
2023-04-04T08:37:32.171Z,5.00
2023-04-04T08:39:59.273Z,4.00
2023-04-04T08:42:28.401Z,4.90
2023-04-04T08:44:55.965Z,4.20
2023-04-04T08:47:24.420Z,4.70
2023-04-04T08:49:52.555Z,4.80
2023-04-04T08:54:47.272Z,5.60
2023-04-04T08:57:16.970Z,5.50
2023-04-04T08:59:43.723Z,6.10
2023-04-04T09:02:10.776Z,5.40
2023-04-04T09:04:37.700Z,5.30
2023-04-04T09:07:05.302Z,4.70
2023-04-04T09:09:34.995Z,4.70
2023-04-04T09:12:02.147Z,5.50
2023-04-04T09:14:30.355Z,5.00
2023-04-04T09:16:57.430Z,4.50
2023-04-04T09:19:26.283Z,5.60
2023-04-04T09:21:53.255Z,6.60
2023-04-04T09:24:19.923Z,5.60
2023-04-04T09:34:08.416Z,6.00
2023-04-04T09:51:20.499Z,7.00
2023-04-04T09:53:51.329Z,6.40
2023-04-04T09:56:19.025Z,6.90
2023-04-04T09:58:56.637Z,6.50
2023-04-04T10:03:58.088Z,7.40
2023-04-04T10:06:25.509Z,6.50
2023-04-04T10:08:52.306Z,6.40
2023-04-04T10:11:29.801Z,6.70
2023-04-04T10:13:57.405Z,7.70
2023-04-04T10:16:24.703Z,7.00
2023-04-04T10:18:52.486Z,6.70
2023-04-04T10:21:19.898Z,7.10
2023-04-04T10:23:46.851Z,7.40
2023-04-04T10:31:17.416Z,9.90
2023-04-04T10:33:50.448Z,10.10
2023-04-04T10:36:25.344Z,10.00
2023-04-04T10:38:58.548Z,9.20
2023-04-04T10:46:23.134Z,10.20
2023-04-04T10:48:50.179Z,8.80
2023-04-04T10:51:17.490Z,11.40
2023-04-04T10:53:44.817Z,9.50
2023-04-04T10:56:11.556Z,9.50
2023-04-04T10:58:41.725Z,8.80
2023-04-04T11:01:08.682Z,8.50
2023-04-04T11:03:54.892Z,10.00
2023-04-04T11:06:24.778Z,9.40
2023-04-04T11:08:56.117Z,8.90
2023-04-04T11:11:25.276Z,9.60
2023-04-04T11:14:04.004Z,9.20
2023-04-04T11:16:44.348Z,9.40
2023-04-04T11:19:15.027Z,8.00
2023-04-04T11:21:46.226Z,8.30
2023-04-04T11:24:13.474Z,8.00
2023-04-04T11:26:42.789Z,7.40
2023-04-04T11:29:09.711Z,7.10
2023-04-04T11:31:40.648Z,7.90
2023-04-04T11:34:08.206Z,8.10
2023-04-04T11:36:38.487Z,7.90
2023-04-04T11:39:06.412Z,7.90
2023-04-04T11:41:53.332Z,8.30
2023-04-04T11:44:22.567Z,7.80
2023-04-04T11:46:50.978Z,8.40
2023-04-04T11:49:18.550Z,10.90
2023-04-04T11:51:45.775Z,11.20
2023-04-04T11:54:18.402Z,11.90
2023-04-04T11:56:45.484Z,10.60
2023-04-04T11:59:12.897Z,10.00
2023-04-04T12:01:40.513Z,8.50
2023-04-04T12:04:07.204Z,8.80
2023-04-04T12:06:35.578Z,8.50
2023-04-04T12:09:04.960Z,9.00
2023-04-04T12:11:33.832Z,8.30
2023-04-04T12:14:01.188Z,8.20
2023-04-04T12:16:28.445Z,8.70
2023-04-04T12:18:57.249Z,9.50
2023-04-04T12:21:24.270Z,9.70
2023-04-04T12:23:51.000Z,9.60
2023-04-04T12:26:19.065Z,10.00
2023-04-04T12:28:49.200Z,10.70
2023-04-04T12:31:16.570Z,12.40
2023-04-04T12:33:43.181Z,13.10
2023-04-04T12:36:11.528Z,13.60
2023-04-04T12:38:58.139Z,11.00
2023-04-04T12:41:24.989Z,10.60
2023-04-04T12:43:51.901Z,10.20
2023-04-04T12:46:18.555Z,9.90
2023-04-04T12:48:45.512Z,9.90
2023-04-04T12:51:12.458Z,10.30
2023-04-04T12:53:53.622Z,10.20
2023-04-04T12:56:23.069Z,8.90
2023-04-04T12:58:50.131Z,9.10
2023-04-04T13:01:19.869Z,9.20
2023-04-04T13:03:47.159Z,9.40
2023-04-04T13:06:15.681Z,11.70
2023-04-04T13:08:49.282Z,14.70
2023-04-04T13:11:15.939Z,13.60
2023-04-04T13:13:44.188Z,12.00
2023-04-04T13:16:12.043Z,11.30
2023-04-04T13:18:43.408Z,10.90
2023-04-04T13:21:11.441Z,11.00
2023-04-04T13:23:39.637Z,10.90
2023-04-04T13:26:07.938Z,10.00
2023-04-04T13:28:35.709Z,10.30
2023-04-04T13:31:03.285Z,11.90
2023-04-04T13:33:29.845Z,14.40
2023-04-04T13:35:57.720Z,15.70
2023-04-04T13:38:25.949Z,16.50
2023-04-04T13:40:54.162Z,15.80
2023-04-04T13:43:20.879Z,16.30
2023-04-04T13:45:47.803Z,15.70
2023-04-04T13:48:14.474Z,16.50
2023-04-04T13:50:44.300Z,16.50
2023-04-04T13:53:11.274Z,17.30
2023-04-04T13:55:41.439Z,16.40
2023-04-04T13:58:10.970Z,16.00
2023-04-04T14:00:39.253Z,17.00
2023-04-04T14:03:06.829Z,16.30
2023-04-04T14:05:34.003Z,14.40
2023-04-04T14:08:00.686Z,12.80
2023-04-04T14:10:27.512Z,11.70
2023-04-04T14:12:55.824Z,12.10
2023-04-04T14:15:22.776Z,11.50
2023-04-04T14:17:49.495Z,15.40
2023-04-04T14:20:16.150Z,15.20
2023-04-04T14:22:42.696Z,14.90
2023-04-04T14:25:09.406Z,15.00
2023-04-04T14:27:36.112Z,16.40
2023-04-04T14:30:02.965Z,16.80
2023-04-04T14:37:23.996Z,18.30
2023-04-04T14:39:50.640Z,16.40
2023-04-04T14:42:17.225Z,16.70
2023-04-04T14:44:43.823Z,17.70
2023-04-04T14:49:37.685Z,14.80
2023-04-04T14:52:04.254Z,14.70
2023-04-04T14:54:30.916Z,17.20
2023-04-04T14:56:58.025Z,17.10
2023-04-04T14:59:24.615Z,17.40
2023-04-04T15:01:51.464Z,16.20
2023-04-04T15:04:17.998Z,16.00
2023-04-04T15:06:44.584Z,16.90
2023-04-04T15:09:11.719Z,17.50
2023-04-04T15:11:38.291Z,16.60
2023-04-04T15:14:05.011Z,14.70
2023-04-04T15:16:33.121Z,15.20
2023-04-04T15:19:00.573Z,15.50
2023-04-04T15:21:27.637Z,15.10
2023-04-04T15:23:54.406Z,14.30
2023-04-04T15:26:21.977Z,13.00
2023-04-04T15:28:49.388Z,11.60
2023-04-04T15:31:16.051Z,10.50
2023-04-04T15:33:42.839Z,10.60
2023-04-04T15:36:09.626Z,9.70
2023-04-04T15:38:36.142Z,9.40
2023-04-04T15:41:04.747Z,9.10
2023-04-04T15:43:31.899Z,10.70
2023-04-04T15:45:58.451Z,13.20
2023-04-04T15:48:25.074Z,14.80
2023-04-04T15:50:51.640Z,15.50
2023-04-04T15:53:18.194Z,15.60
2023-04-04T15:55:44.847Z,16.50
2023-04-04T15:58:13.832Z,17.60
2023-04-04T16:00:50.456Z,17.10
2023-04-04T16:03:21.027Z,18.80
2023-04-04T16:05:47.940Z,17.70
2023-04-04T16:08:14.881Z,16.90
2023-04-04T16:10:41.831Z,16.30
2023-04-04T16:13:08.627Z,17.20
2023-04-04T16:15:42.805Z,16.20
2023-04-04T16:18:09.545Z,17.30
2023-04-04T16:20:36.608Z,15.70
2023-04-04T16:23:03.229Z,13.40
2023-04-04T16:25:29.827Z,10.60
2023-04-04T16:27:56.511Z,11.80
2023-04-04T16:30:23.068Z,8.20
2023-04-04T16:32:49.796Z,8.00
2023-04-04T16:35:16.453Z,7.50
2023-04-04T16:37:43.019Z,7.40
2023-04-04T16:40:09.877Z,7.50
2023-04-04T16:42:36.497Z,7.50
2023-04-04T16:45:08.230Z,6.10
2023-04-04T16:47:36.251Z,7.20
2023-04-04T16:50:04.137Z,6.50
2023-04-04T16:52:31.132Z,6.40
2023-04-04T16:54:57.679Z,6.40
2023-04-04T16:57:24.660Z,6.00
2023-04-04T16:59:54.986Z,6.20
2023-04-04T17:02:21.622Z,5.70
2023-04-04T17:07:57.946Z,6.30
2023-04-04T17:15:36.768Z,8.00
2023-04-04T17:18:04.664Z,6.00
2023-04-04T17:23:01.153Z,5.50
2023-04-04T17:27:55.981Z,5.30
2023-04-04T17:30:22.611Z,5.10
2023-04-04T17:32:51.231Z,5.10
2023-04-04T17:42:39.101Z,4.70
2023-04-04T17:45:06.855Z,4.50
2023-04-04T17:47:33.494Z,4.50
2023-04-04T17:50:00.144Z,4.40
2023-04-04T17:52:27.080Z,4.30
2023-04-04T17:54:53.778Z,4.30
2023-04-04T17:57:20.569Z,4.10
2023-04-04T17:59:50.186Z,4.10
2023-04-04T18:02:18.547Z,4.00
2023-04-04T18:07:14.359Z,3.70
2023-04-04T18:09:41.804Z,3.80
2023-04-04T18:12:09.513Z,3.70
2023-04-04T18:14:36.111Z,3.60
2023-04-04T18:17:02.930Z,3.50
2023-04-04T18:19:30.091Z,3.40
2023-04-04T18:22:00.063Z,3.20
2023-04-04T18:26:54.793Z,3.00
2023-04-04T18:29:21.538Z,3.00
2023-04-04T18:31:48.251Z,3.10
2023-04-04T18:34:16.570Z,2.80
2023-04-04T18:36:43.411Z,2.90
2023-04-04T18:39:10.133Z,2.70
2023-04-04T18:41:37.234Z,2.70
2023-04-04T18:44:03.806Z,2.60
2023-04-04T18:46:30.459Z,2.70
2023-04-04T18:48:57.254Z,2.80
2023-04-04T18:51:23.985Z,2.70
2023-04-04T18:53:50.958Z,2.60
2023-04-04T18:56:17.603Z,2.60
2023-04-04T18:58:44.236Z,2.40
2023-04-04T19:03:42.007Z,2.40
2023-04-04T19:06:10.739Z,2.40
2023-04-04T19:08:41.020Z,2.30
2023-04-04T19:13:35.741Z,3.50
2023-04-04T19:16:02.440Z,2.90
2023-04-04T19:20:56.262Z,1.80
2023-04-04T19:23:22.846Z,1.60
2023-04-04T19:25:50.853Z,1.50
2023-04-04T19:28:17.494Z,1.50
2023-04-04T19:30:44.229Z,1.60
2023-04-04T19:33:11.317Z,1.40
2023-04-04T19:40:46.260Z,1.30
2023-04-04T19:43:14.231Z,1.10
2023-04-04T19:45:53.250Z,1.00
2023-04-04T19:48:38.845Z,1.00
2023-04-04T19:51:32.033Z,0.90
2023-04-04T19:53:59.371Z,0.90
2023-04-04T19:56:27.422Z,0.90
2023-04-04T19:58:55.918Z,0.80
2023-04-04T20:01:29.070Z,0.90
2023-04-04T20:04:15.996Z,0.80
2023-04-04T20:06:42.921Z,0.70
2023-04-04T20:09:25.344Z,0.70
2023-04-04T20:11:52.058Z,0.70
2023-04-04T20:14:20.120Z,0.60
2023-04-04T20:16:46.799Z,0.40
2023-04-04T20:19:13.930Z,0.50
2023-04-04T20:21:40.766Z,0.40
2023-04-04T20:24:08.560Z,0.10
2023-04-04T20:29:06.514Z,0.40
2023-04-04T20:31:40.871Z,0.40
2023-04-04T20:34:09.223Z,0.10
2023-04-04T20:36:39.250Z,0.00
2023-04-04T20:39:07.759Z,-0.10
2023-04-04T20:41:34.321Z,-0.10
2023-04-04T20:44:00.997Z,-0.10
2023-04-04T20:46:27.630Z,0.00
2023-04-04T20:48:56.464Z,0.00
2023-04-04T20:51:23.868Z,-0.10
2023-04-04T20:56:36.990Z,-0.20
2023-04-04T20:59:06.223Z,-0.30
2023-04-04T21:01:32.862Z,0.40
2023-04-04T21:03:59.681Z,-0.50
2023-04-04T21:06:28.802Z,-0.60
2023-04-04T21:08:55.498Z,-0.20
2023-04-04T21:11:24.134Z,-0.50
2023-04-04T21:13:50.832Z,0.10
2023-04-04T21:16:19.037Z,-0.70
2023-04-04T21:18:45.765Z,-0.80
2023-04-04T21:21:13.803Z,-0.90
2023-04-04T21:23:43.154Z,-0.90
2023-04-04T21:26:10.932Z,-1.00
2023-04-04T21:28:38.866Z,-1.10
2023-04-04T21:31:13.660Z,-1.00
2023-04-04T21:33:47.218Z,-0.90
2023-04-04T21:36:19.805Z,-0.80
2023-04-04T21:38:46.385Z,-0.70
2023-04-04T21:41:21.594Z,-0.70
2023-04-04T21:43:48.188Z,-0.80
2023-04-04T21:46:14.819Z,-0.90
2023-04-04T21:48:41.760Z,-0.80
2023-04-04T21:51:08.348Z,-0.70
2023-04-04T21:56:02.130Z,-0.90
2023-04-04T21:58:29.067Z,-1.30
2023-04-04T22:00:55.627Z,-1.40
2023-04-04T22:03:22.249Z,-1.40
2023-04-04T22:05:48.912Z,-1.20
2023-04-04T22:08:15.569Z,-1.20
2023-04-04T22:10:52.218Z,-1.10
2023-04-04T22:13:19.500Z,-1.20
2023-04-04T22:15:47.125Z,-1.40
2023-04-04T22:18:16.754Z,-1.30
2023-04-04T22:20:44.266Z,-1.30
2023-04-04T22:23:11.866Z,-1.20
2023-04-04T22:25:38.447Z,-1.40
2023-04-04T22:28:08.326Z,-1.80
2023-04-04T22:30:35.897Z,-1.20
2023-04-04T22:33:05.245Z,-1.00
2023-04-04T22:35:32.640Z,-1.70
2023-04-04T22:38:03.092Z,-2.00
2023-04-04T22:40:33.662Z,-1.60
2023-04-04T22:43:01.437Z,-1.20
2023-04-04T22:45:29.554Z,-1.40
2023-04-04T22:47:57.898Z,-0.50
2023-04-04T22:50:24.910Z,-1.80
2023-04-04T22:52:54.591Z,-1.40
2023-04-04T22:55:22.649Z,-1.50
2023-04-04T22:57:49.509Z,-1.60
2023-04-04T23:00:16.147Z,-1.00
2023-04-04T23:02:43.559Z,-1.30
2023-04-04T23:05:10.767Z,-1.60
2023-04-04T23:07:37.875Z,-1.40
2023-04-04T23:10:05.400Z,-1.70
2023-04-04T23:12:32.038Z,-1.50
2023-04-04T23:15:01.341Z,-1.60
2023-04-04T23:17:28.128Z,-1.80
2023-04-04T23:19:54.949Z,-1.60
2023-04-04T23:22:21.736Z,-1.70
2023-04-04T23:24:48.600Z,-1.70
2023-04-04T23:27:15.977Z,-1.60
2023-04-04T23:29:42.920Z,-1.90
2023-04-04T23:32:09.902Z,-1.60
2023-04-04T23:34:36.457Z,-1.70
2023-04-04T23:37:03.438Z,-1.90
2023-04-04T23:39:30.020Z,-1.80
2023-04-04T23:41:58.260Z,-1.70
2023-04-04T23:44:24.899Z,-1.90
2023-04-04T23:46:51.582Z,-2.00
2023-04-04T23:49:19.865Z,-1.90
2023-04-04T23:51:47.276Z,-2.00
2023-04-04T23:54:13.997Z,-1.50
2023-04-04T23:56:40.725Z,-1.50
2023-04-04T23:59:07.414Z,-1.50
